sensor_id;sensor_type;location;lat;lon;timestamp;pressure;altitude;pressure_sealevel;temperature;humidity
84382;BME280;74572;51.834;5.820;2024-02-23T00:00:35;98833.44;;;4.13;84.45
84382;BME280;74572;51.834;5.820;2024-02-23T00:03:00;98821.50;;;4.09;84.36
84382;BME280;74572;51.834;5.820;2024-02-23T00:05:26;98824.94;;;4.11;84.24
84382;BME280;74572;51.834;5.820;2024-02-23T00:07:51;98828.47;;;4.15;84.40
84382;BME280;74572;51.834;5.820;2024-02-23T00:10:19;98832.41;;;4.10;84.24
84382;BME280;74572;51.834;5.820;2024-02-23T00:12:45;98827.31;;;4.08;84.14
84382;BME280;74572;51.834;5.820;2024-02-23T00:15:12;98848.31;;;4.09;84.49
84382;BME280;74572;51.834;5.820;2024-02-23T00:17:38;98836.59;;;4.09;84.51
84382;BME280;74572;51.834;5.820;2024-02-23T00:20:05;98848.53;;;4.13;84.34
84382;BME280;74572;51.834;5.820;2024-02-23T00:22:32;98856.88;;;4.12;84.38
84382;BME280;74572;51.834;5.820;2024-02-23T00:24:59;98850.09;;;4.11;84.38
84382;BME280;74572;51.834;5.820;2024-02-23T00:27:24;98863.41;;;4.09;84.44
84382;BME280;74572;51.834;5.820;2024-02-23T00:29:49;98866.50;;;4.03;84.23
84382;BME280;74572;51.834;5.820;2024-02-23T00:32:14;98857.72;;;3.95;84.76
84382;BME280;74572;51.834;5.820;2024-02-23T00:34:40;98864.41;;;3.95;84.72
84382;BME280;74572;51.834;5.820;2024-02-23T00:37:05;98862.69;;;3.94;84.80
84382;BME280;74572;51.834;5.820;2024-02-23T00:39:33;98866.69;;;3.90;84.93
84382;BME280;74572;51.834;5.820;2024-02-23T00:41:58;98862.47;;;3.89;84.84
84382;BME280;74572;51.834;5.820;2024-02-23T00:44:23;98871.88;;;3.93;84.90
84382;BME280;74572;51.834;5.820;2024-02-23T00:46:49;98875.03;;;3.89;84.67
84382;BME280;74572;51.834;5.820;2024-02-23T00:49:14;98880.06;;;3.89;84.65
84382;BME280;74572;51.834;5.820;2024-02-23T00:51:40;98880.69;;;3.85;84.88
84382;BME280;74572;51.834;5.820;2024-02-23T00:54:05;98882.31;;;3.83;84.99
84382;BME280;74572;51.834;5.820;2024-02-23T00:56:33;98880.78;;;3.87;85.04
84382;BME280;74572;51.834;5.820;2024-02-23T00:58:58;98880.06;;;3.89;85.08
84382;BME280;74572;51.834;5.820;2024-02-23T01:01:24;98886.09;;;3.93;84.89
84382;BME280;74572;51.834;5.820;2024-02-23T01:03:51;98886.03;;;3.91;84.99
84382;BME280;74572;51.834;5.820;2024-02-23T01:06:16;98882.56;;;3.89;84.81
84382;BME280;74572;51.834;5.820;2024-02-23T01:08:42;98895.38;;;3.94;84.87
84382;BME280;74572;51.834;5.820;2024-02-23T01:11:08;98882.41;;;3.86;85.12
84382;BME280;74572;51.834;5.820;2024-02-23T01:13:33;98896.72;;;3.87;84.88
84382;BME280;74572;51.834;5.820;2024-02-23T01:15:58;98911.41;;;3.96;85.27
84382;BME280;74572;51.834;5.820;2024-02-23T01:18:24;98900.72;;;4.00;84.69
84382;BME280;74572;51.834;5.820;2024-02-23T01:20:49;98899.22;;;4.03;84.85
84382;BME280;74572;51.834;5.820;2024-02-23T01:23:15;98910.19;;;4.05;84.56
84382;BME280;74572;51.834;5.820;2024-02-23T01:25:40;98910.06;;;4.02;84.73
84382;BME280;74572;51.834;5.820;2024-02-23T01:28:06;98926.72;;;4.00;84.63
84382;BME280;74572;51.834;5.820;2024-02-23T01:30:31;98909.75;;;3.96;84.48
84382;BME280;74572;51.834;5.820;2024-02-23T01:32:56;98922.03;;;3.90;84.87
84382;BME280;74572;51.834;5.820;2024-02-23T01:35:22;98928.56;;;3.87;84.93
84382;BME280;74572;51.834;5.820;2024-02-23T01:37:48;98922.22;;;3.77;84.92
84382;BME280;74572;51.834;5.820;2024-02-23T01:40:13;98932.72;;;3.86;84.91
84382;BME280;74572;51.834;5.820;2024-02-23T01:42:38;98930.94;;;3.84;84.71
84382;BME280;74572;51.834;5.820;2024-02-23T01:45:04;98925.06;;;3.83;84.62
84382;BME280;74572;51.834;5.820;2024-02-23T01:47:30;98930.00;;;3.81;84.73
84382;BME280;74572;51.834;5.820;2024-02-23T01:49:57;98929.13;;;3.81;84.61
84382;BME280;74572;51.834;5.820;2024-02-23T01:52:24;98936.75;;;3.83;84.50
84382;BME280;74572;51.834;5.820;2024-02-23T01:54:50;98936.88;;;3.86;84.32
84382;BME280;74572;51.834;5.820;2024-02-23T01:57:16;98941.06;;;3.85;84.07
84382;BME280;74572;51.834;5.820;2024-02-23T01:59:43;98945.16;;;3.83;83.96
84382;BME280;74572;51.834;5.820;2024-02-23T02:02:09;98941.88;;;3.84;84.51
84382;BME280;74572;51.834;5.820;2024-02-23T02:04:34;98943.91;;;3.75;84.08
84382;BME280;74572;51.834;5.820;2024-02-23T02:07:00;98960.97;;;3.80;83.99
84382;BME280;74572;51.834;5.820;2024-02-23T02:09:29;98963.69;;;3.85;83.84
84382;BME280;74572;51.834;5.820;2024-02-23T02:12:01;98962.91;;;3.86;83.51
84382;BME280;74572;51.834;5.820;2024-02-23T02:14:27;98954.56;;;3.87;83.48
84382;BME280;74572;51.834;5.820;2024-02-23T02:17:01;98960.19;;;3.81;83.40
84382;BME280;74572;51.834;5.820;2024-02-23T02:19:27;98939.63;;;3.90;83.29
84382;BME280;74572;51.834;5.820;2024-02-23T02:21:53;98966.81;;;3.97;83.12
84382;BME280;74572;51.834;5.820;2024-02-23T02:24:19;98968.84;;;4.04;82.89
84382;BME280;74572;51.834;5.820;2024-02-23T02:26:47;98965.41;;;4.02;83.16
84382;BME280;74572;51.834;5.820;2024-02-23T02:29:15;98980.72;;;4.07;82.96
84382;BME280;74572;51.834;5.820;2024-02-23T02:31:42;98973.31;;;4.10;82.90
84382;BME280;74572;51.834;5.820;2024-02-23T02:34:07;98985.81;;;4.08;82.50
84382;BME280;74572;51.834;5.820;2024-02-23T02:36:33;98977.19;;;4.03;82.62
84382;BME280;74572;51.834;5.820;2024-02-23T02:38:59;98981.13;;;3.98;82.71
84382;BME280;74572;51.834;5.820;2024-02-23T02:41:28;98972.50;;;3.93;82.90
84382;BME280;74572;51.834;5.820;2024-02-23T02:43:56;98991.81;;;3.94;82.63
84382;BME280;74572;51.834;5.820;2024-02-23T02:46:22;98995.28;;;3.96;82.72
84382;BME280;74572;51.834;5.820;2024-02-23T02:48:50;98990.09;;;3.93;82.79
84382;BME280;74572;51.834;5.820;2024-02-23T02:51:16;98988.53;;;3.95;82.46
84382;BME280;74572;51.834;5.820;2024-02-23T02:53:41;98995.13;;;3.93;82.20
84382;BME280;74572;51.834;5.820;2024-02-23T02:56:07;98983.50;;;3.95;82.24
84382;BME280;74572;51.834;5.820;2024-02-23T02:58:33;98991.97;;;3.97;82.10
84382;BME280;74572;51.834;5.820;2024-02-23T03:01:01;98995.28;;;3.96;82.12
84382;BME280;74572;51.834;5.820;2024-02-23T03:03:31;99004.88;;;3.87;81.91
84382;BME280;74572;51.834;5.820;2024-02-23T03:05:59;98992.09;;;3.83;81.96
84382;BME280;74572;51.834;5.820;2024-02-23T03:08:25;99012.13;;;3.81;81.99
84382;BME280;74572;51.834;5.820;2024-02-23T03:10:51;99014.81;;;3.84;81.60
84382;BME280;74572;51.834;5.820;2024-02-23T03:13:17;99006.31;;;3.82;81.94
84382;BME280;74572;51.834;5.820;2024-02-23T03:15:42;98986.19;;;3.82;81.70
84382;BME280;74572;51.834;5.820;2024-02-23T03:18:07;98997.41;;;3.89;81.73
84382;BME280;74572;51.834;5.820;2024-02-23T03:20:34;98994.19;;;3.91;81.26
84382;BME280;74572;51.834;5.820;2024-02-23T03:23:00;99004.31;;;3.93;81.39
84382;BME280;74572;51.834;5.820;2024-02-23T03:25:27;99013.53;;;3.92;81.25
84382;BME280;74572;51.834;5.820;2024-02-23T03:27:53;99024.44;;;3.93;81.26
84382;BME280;74572;51.834;5.820;2024-02-23T03:30:19;99017.75;;;3.93;81.43
84382;BME280;74572;51.834;5.820;2024-02-23T03:32:44;99024.44;;;3.93;81.54
84382;BME280;74572;51.834;5.820;2024-02-23T03:35:12;99022.88;;;3.95;81.55
84382;BME280;74572;51.834;5.820;2024-02-23T03:37:37;99021.38;;;3.98;81.50
84382;BME280;74572;51.834;5.820;2024-02-23T03:40:04;99020.75;;;4.02;81.36
84382;BME280;74572;51.834;5.820;2024-02-23T03:42:30;99027.34;;;4.00;81.29
84382;BME280;74572;51.834;5.820;2024-02-23T03:44:55;99021.22;;;3.95;81.33
84382;BME280;74572;51.834;5.820;2024-02-23T03:47:20;99039.53;;;3.93;81.66
84382;BME280;74572;51.834;5.820;2024-02-23T03:49:46;99030.97;;;3.89;81.67
84382;BME280;74572;51.834;5.820;2024-02-23T03:52:11;99031.66;;;3.87;81.27
84382;BME280;74572;51.834;5.820;2024-02-23T03:54:37;99034.75;;;3.81;82.17
84382;BME280;74572;51.834;5.820;2024-02-23T03:57:02;99047.25;;;3.79;81.96
84382;BME280;74572;51.834;5.820;2024-02-23T03:59:28;99045.84;;;3.85;82.12
84382;BME280;74572;51.834;5.820;2024-02-23T04:01:54;99055.41;;;3.92;81.82
84382;BME280;74572;51.834;5.820;2024-02-23T04:04:20;99043.88;;;3.95;81.59
84382;BME280;74572;51.834;5.820;2024-02-23T04:06:45;99057.84;;;4.06;81.67
84382;BME280;74572;51.834;5.820;2024-02-23T04:09:11;99060.44;;;4.08;81.39
84382;BME280;74572;51.834;5.820;2024-02-23T04:11:36;99045.91;;;4.02;81.52
84382;BME280;74572;51.834;5.820;2024-02-23T04:14:01;99057.53;;;4.00;81.51
84382;BME280;74572;51.834;5.820;2024-02-23T04:16:27;99056.44;;;3.95;81.69
84382;BME280;74572;51.834;5.820;2024-02-23T04:18:53;99054.53;;;3.91;81.84
84382;BME280;74572;51.834;5.820;2024-02-23T04:21:19;99058.78;;;3.92;81.20
84382;BME280;74572;51.834;5.820;2024-02-23T04:23:45;99058.00;;;3.93;81.52
84382;BME280;74572;51.834;5.820;2024-02-23T04:26:10;99060.69;;;3.96;81.54
84382;BME280;74572;51.834;5.820;2024-02-23T04:28:40;99075.06;;;3.99;81.67
84382;BME280;74572;51.834;5.820;2024-02-23T04:31:05;99067.22;;;3.93;81.47
84382;BME280;74572;51.834;5.820;2024-02-23T04:33:30;99064.59;;;3.91;81.73
84382;BME280;74572;51.834;5.820;2024-02-23T04:35:56;99076.88;;;3.85;81.87
84382;BME280;74572;51.834;5.820;2024-02-23T04:38:21;99066.66;;;3.82;81.78
84382;BME280;74572;51.834;5.820;2024-02-23T04:40:47;99075.94;;;3.83;81.65
84382;BME280;74572;51.834;5.820;2024-02-23T04:43:12;99084.19;;;3.80;81.97
84382;BME280;74572;51.834;5.820;2024-02-23T04:45:37;99087.88;;;3.87;81.92
84382;BME280;74572;51.834;5.820;2024-02-23T04:48:03;99086.47;;;3.92;81.89
84382;BME280;74572;51.834;5.820;2024-02-23T04:50:29;99095.13;;;3.97;81.88
84382;BME280;74572;51.834;5.820;2024-02-23T04:52:54;99101.47;;;4.07;81.84
84382;BME280;74572;51.834;5.820;2024-02-23T04:55:19;99095.25;;;4.16;81.21
84382;BME280;74572;51.834;5.820;2024-02-23T04:57:45;99093.06;;;4.23;81.09
84382;BME280;74572;51.834;5.820;2024-02-23T05:00:11;99089.91;;;4.27;80.96
84382;BME280;74572;51.834;5.820;2024-02-23T05:02:36;99088.25;;;4.27;80.82
84382;BME280;74572;51.834;5.820;2024-02-23T05:05:03;99095.72;;;4.26;80.97
84382;BME280;74572;51.834;5.820;2024-02-23T05:07:30;99082.34;;;4.27;80.93
84382;BME280;74572;51.834;5.820;2024-02-23T05:09:56;99087.38;;;4.27;80.91
84382;BME280;74572;51.834;5.820;2024-02-23T05:12:22;99092.72;;;4.33;80.71
84382;BME280;74572;51.834;5.820;2024-02-23T05:14:47;99107.13;;;4.35;80.69
84382;BME280;74572;51.834;5.820;2024-02-23T05:17:12;99096.28;;;4.36;80.73
84382;BME280;74572;51.834;5.820;2024-02-23T05:19:38;99092.34;;;4.41;80.71
84382;BME280;74572;51.834;5.820;2024-02-23T05:22:03;99097.66;;;4.47;80.31
84382;BME280;74572;51.834;5.820;2024-02-23T05:24:29;99102.91;;;4.52;80.09
84382;BME280;74572;51.834;5.820;2024-02-23T05:26:54;99092.22;;;4.56;79.78
84382;BME280;74572;51.834;5.820;2024-02-23T05:29:19;99099.13;;;4.60;79.42
84382;BME280;74572;51.834;5.820;2024-02-23T05:31:52;99092.38;;;4.59;79.79
84382;BME280;74572;51.834;5.820;2024-02-23T05:34:18;99094.97;;;4.61;80.11
84382;BME280;74572;51.834;5.820;2024-02-23T05:36:44;99097.53;;;4.62;79.65
84382;BME280;74572;51.834;5.820;2024-02-23T05:39:11;99088.56;;;4.67;79.37
84382;BME280;74572;51.834;5.820;2024-02-23T05:41:37;99087.63;;;4.65;79.37
84382;BME280;74572;51.834;5.820;2024-02-23T05:44:06;99091.22;;;4.70;79.37
84382;BME280;74572;51.834;5.820;2024-02-23T05:46:35;99095.56;;;4.73;79.07
84382;BME280;74572;51.834;5.820;2024-02-23T05:49:01;99093.19;;;4.76;78.94
84382;BME280;74572;51.834;5.820;2024-02-23T05:51:28;99094.06;;;4.76;79.00
84382;BME280;74572;51.834;5.820;2024-02-23T05:53:54;99093.09;;;4.74;79.34
84382;BME280;74572;51.834;5.820;2024-02-23T05:56:19;99095.00;;;4.78;79.24
84382;BME280;74572;51.834;5.820;2024-02-23T05:58:45;99101.88;;;4.82;78.51
84382;BME280;74572;51.834;5.820;2024-02-23T06:01:10;99098.56;;;4.83;78.59
84382;BME280;74572;51.834;5.820;2024-02-23T06:03:36;99098.72;;;4.86;78.50
84382;BME280;74572;51.834;5.820;2024-02-23T06:06:01;99086.91;;;4.85;78.38
84382;BME280;74572;51.834;5.820;2024-02-23T06:08:26;99089.75;;;4.92;78.12
84382;BME280;74572;51.834;5.820;2024-02-23T06:10:51;99079.75;;;4.93;78.20
84382;BME280;74572;51.834;5.820;2024-02-23T06:13:17;99084.06;;;4.96;78.03
84382;BME280;74572;51.834;5.820;2024-02-23T06:15:42;99083.19;;;4.95;78.01
84382;BME280;74572;51.834;5.820;2024-02-23T06:18:08;99084.94;;;4.96;77.90
84382;BME280;74572;51.834;5.820;2024-02-23T06:20:33;99067.06;;;4.92;77.83
84382;BME280;74572;51.834;5.820;2024-02-23T06:22:59;99076.34;;;4.93;77.51
84382;BME280;74572;51.834;5.820;2024-02-23T06:25:24;99089.88;;;4.95;78.12
84382;BME280;74572;51.834;5.820;2024-02-23T06:27:49;99088.22;;;4.95;77.76
84382;BME280;74572;51.834;5.820;2024-02-23T06:30:15;99077.94;;;4.91;77.95
84382;BME280;74572;51.834;5.820;2024-02-23T06:32:40;99080.59;;;4.94;78.17
84382;BME280;74572;51.834;5.820;2024-02-23T06:35:06;99090.69;;;4.94;78.43
84382;BME280;74572;51.834;5.820;2024-02-23T06:37:32;99085.13;;;5.01;77.74
84382;BME280;74572;51.834;5.820;2024-02-23T06:39:58;99091.16;;;5.04;77.46
84382;BME280;74572;51.834;5.820;2024-02-23T06:42:23;99081.16;;;5.06;77.40
84382;BME280;74572;51.834;5.820;2024-02-23T06:44:49;99082.09;;;5.08;77.18
84382;BME280;74572;51.834;5.820;2024-02-23T06:47:15;99090.81;;;5.14;77.16
84382;BME280;74572;51.834;5.820;2024-02-23T06:49:44;99085.94;;;5.17;76.98
84382;BME280;74572;51.834;5.820;2024-02-23T06:52:10;99087.69;;;5.20;76.37
84382;BME280;74572;51.834;5.820;2024-02-23T06:54:36;99070.13;;;5.21;76.33
84382;BME280;74572;51.834;5.820;2024-02-23T06:57:01;99077.78;;;5.23;75.92
84382;BME280;74572;51.834;5.820;2024-02-23T06:59:27;99078.84;;;5.28;75.89
84382;BME280;74572;51.834;5.820;2024-02-23T07:01:52;99068.78;;;5.28;75.96
84382;BME280;74572;51.834;5.820;2024-02-23T07:04:18;99066.31;;;5.30;75.45
84382;BME280;74572;51.834;5.820;2024-02-23T07:06:44;99070.94;;;5.38;75.85
84382;BME280;74572;51.834;5.820;2024-02-23T07:09:10;99067.72;;;5.42;75.29
84382;BME280;74572;51.834;5.820;2024-02-23T07:11:37;99065.56;;;5.50;75.07
84382;BME280;74572;51.834;5.820;2024-02-23T07:14:02;99066.56;;;5.53;74.57
84382;BME280;74572;51.834;5.820;2024-02-23T07:16:28;99070.28;;;5.62;74.46
84382;BME280;74572;51.834;5.820;2024-02-23T07:18:53;99079.72;;;5.66;74.31
84382;BME280;74572;51.834;5.820;2024-02-23T07:21:19;99083.97;;;5.67;73.80
84382;BME280;74572;51.834;5.820;2024-02-23T07:23:45;99093.41;;;5.71;73.10
84382;BME280;74572;51.834;5.820;2024-02-23T07:26:10;99089.31;;;5.73;73.12
84382;BME280;74572;51.834;5.820;2024-02-23T07:28:37;99088.50;;;5.74;72.64
84382;BME280;74572;51.834;5.820;2024-02-23T07:31:02;99093.63;;;5.75;72.54
84382;BME280;74572;51.834;5.820;2024-02-23T07:33:28;99088.69;;;5.78;71.65
84382;BME280;74572;51.834;5.820;2024-02-23T07:35:53;99094.72;;;5.82;72.23
84382;BME280;74572;51.834;5.820;2024-02-23T07:38:19;99086.16;;;5.78;71.71
84382;BME280;74572;51.834;5.820;2024-02-23T07:40:44;99097.25;;;5.82;72.23
84382;BME280;74572;51.834;5.820;2024-02-23T07:43:10;99100.72;;;5.84;72.08
84382;BME280;74572;51.834;5.820;2024-02-23T07:45:39;99090.16;;;5.91;71.64
84382;BME280;74572;51.834;5.820;2024-02-23T07:48:04;99091.16;;;5.95;72.37
84382;BME280;74572;51.834;5.820;2024-02-23T07:50:30;99097.16;;;5.98;71.04
84382;BME280;74572;51.834;5.820;2024-02-23T07:52:55;99090.53;;;6.00;71.51
84382;BME280;74572;51.834;5.820;2024-02-23T07:55:21;99087.34;;;6.04;70.77
84382;BME280;74572;51.834;5.820;2024-02-23T07:57:47;99083.66;;;6.17;70.84
84382;BME280;74572;51.834;5.820;2024-02-23T08:00:13;99089.50;;;6.35;69.80
84382;BME280;74572;51.834;5.820;2024-02-23T08:02:39;99085.84;;;6.48;68.92
84382;BME280;74572;51.834;5.820;2024-02-23T08:05:05;99077.41;;;6.68;68.86
84382;BME280;74572;51.834;5.820;2024-02-23T08:07:31;99078.03;;;6.83;68.21
84382;BME280;74572;51.834;5.820;2024-02-23T08:09:56;99077.69;;;6.97;68.09
84382;BME280;74572;51.834;5.820;2024-02-23T08:12:22;99073.03;;;7.06;68.38
84382;BME280;74572;51.834;5.820;2024-02-23T08:14:48;99075.81;;;7.13;67.96
84382;BME280;74572;51.834;5.820;2024-02-23T08:17:14;99076.16;;;7.43;67.03
84382;BME280;74572;51.834;5.820;2024-02-23T08:19:40;99081.31;;;7.46;66.98
84382;BME280;74572;51.834;5.820;2024-02-23T08:22:05;99078.91;;;7.27;67.36
84382;BME280;74572;51.834;5.820;2024-02-23T08:24:31;99077.94;;;7.03;67.58
84382;BME280;74572;51.834;5.820;2024-02-23T08:26:56;99080.56;;;6.83;68.61
84382;BME280;74572;51.834;5.820;2024-02-23T08:29:22;99075.16;;;6.97;68.24
84382;BME280;74572;51.834;5.820;2024-02-23T08:31:48;99076.91;;;6.98;67.52
84382;BME280;74572;51.834;5.820;2024-02-23T08:34:14;99075.97;;;6.96;68.25
84382;BME280;74572;51.834;5.820;2024-02-23T08:36:40;99068.56;;;7.00;67.72
84382;BME280;74572;51.834;5.820;2024-02-23T08:39:07;99071.47;;;7.09;67.60
84382;BME280;74572;51.834;5.820;2024-02-23T08:41:34;99067.19;;;7.29;66.51
84382;BME280;74572;51.834;5.820;2024-02-23T08:43:59;99047.56;;;7.68;65.34
84382;BME280;74572;51.834;5.820;2024-02-23T08:46:24;99052.72;;;7.95;64.33
84382;BME280;74572;51.834;5.820;2024-02-23T08:48:50;99059.56;;;7.97;63.90
84382;BME280;74572;51.834;5.820;2024-02-23T08:51:15;99059.84;;;8.05;64.24
84382;BME280;74572;51.834;5.820;2024-02-23T08:53:42;99037.97;;;8.07;64.43
84382;BME280;74572;51.834;5.820;2024-02-23T08:56:08;99052.94;;;8.01;64.45
84382;BME280;74572;51.834;5.820;2024-02-23T08:58:34;99060.06;;;7.87;64.75
84382;BME280;74572;51.834;5.820;2024-02-23T09:01:00;99057.03;;;7.74;65.54
84382;BME280;74572;51.834;5.820;2024-02-23T09:03:25;99066.16;;;7.70;65.02
84382;BME280;74572;51.834;5.820;2024-02-23T09:05:51;99051.41;;;7.58;65.41
84382;BME280;74572;51.834;5.820;2024-02-23T09:08:16;99046.22;;;7.55;65.70
84382;BME280;74572;51.834;5.820;2024-02-23T09:10:41;99054.56;;;7.53;65.36
84382;BME280;74572;51.834;5.820;2024-02-23T09:13:08;99047.84;;;7.53;65.30
84382;BME280;74572;51.834;5.820;2024-02-23T09:15:33;99043.75;;;7.57;65.17
84382;BME280;74572;51.834;5.820;2024-02-23T09:17:58;99042.31;;;7.63;65.22
84382;BME280;74572;51.834;5.820;2024-02-23T09:20:24;99049.06;;;7.63;64.72
84382;BME280;74572;51.834;5.820;2024-02-23T09:22:49;99045.78;;;7.66;65.65
84382;BME280;74572;51.834;5.820;2024-02-23T09:25:15;99046.41;;;7.60;65.87
84382;BME280;74572;51.834;5.820;2024-02-23T09:27:41;99043.19;;;7.42;66.20
84382;BME280;74572;51.834;5.820;2024-02-23T09:30:12;99049.31;;;7.24;66.11
84382;BME280;74572;51.834;5.820;2024-02-23T09:32:38;99033.56;;;7.09;66.68
84382;BME280;74572;51.834;5.820;2024-02-23T09:35:04;99040.59;;;6.96;67.09
84382;BME280;74572;51.834;5.820;2024-02-23T09:37:30;99043.56;;;6.85;67.07
84382;BME280;74572;51.834;5.820;2024-02-23T09:39:56;99043.31;;;6.79;67.53
84382;BME280;74572;51.834;5.820;2024-02-23T09:42:22;99053.28;;;6.76;67.74
84382;BME280;74572;51.834;5.820;2024-02-23T09:44:58;99056.88;;;6.81;67.85
84382;BME280;74572;51.834;5.820;2024-02-23T09:47:26;99052.69;;;6.82;67.77
84382;BME280;74572;51.834;5.820;2024-02-23T09:49:54;99050.22;;;6.83;67.75
84382;BME280;74572;51.834;5.820;2024-02-23T09:52:21;99058.78;;;7.08;67.20
84382;BME280;74572;51.834;5.820;2024-02-23T09:54:47;99061.41;;;7.33;67.28
84382;BME280;74572;51.834;5.820;2024-02-23T09:57:13;99074.41;;;7.42;66.79
84382;BME280;74572;51.834;5.820;2024-02-23T09:59:41;99064.97;;;7.38;66.68
84382;BME280;74572;51.834;5.820;2024-02-23T10:02:16;99066.78;;;7.63;66.16
84382;BME280;74572;51.834;5.820;2024-02-23T10:04:44;99071.00;;;7.86;65.98
84382;BME280;74572;51.834;5.820;2024-02-23T10:07:09;99073.09;;;7.98;65.80
84382;BME280;74572;51.834;5.820;2024-02-23T10:09:35;99076.19;;;7.91;66.18
84382;BME280;74572;51.834;5.820;2024-02-23T10:12:02;99072.22;;;7.97;66.55
84382;BME280;74572;51.834;5.820;2024-02-23T10:14:27;99078.22;;;8.00;66.47
84382;BME280;74572;51.834;5.820;2024-02-23T10:16:53;99087.13;;;7.90;66.51
84382;BME280;74572;51.834;5.820;2024-02-23T10:19:20;99097.75;;;7.80;67.34
84382;BME280;74572;51.834;5.820;2024-02-23T10:21:46;99089.81;;;7.71;67.71
84382;BME280;74572;51.834;5.820;2024-02-23T10:24:11;99102.00;;;7.58;67.83
84382;BME280;74572;51.834;5.820;2024-02-23T10:26:37;99106.84;;;7.52;67.98
84382;BME280;74572;51.834;5.820;2024-02-23T10:29:02;99103.84;;;7.40;68.19
84382;BME280;74572;51.834;5.820;2024-02-23T10:31:34;99107.72;;;7.31;68.15
84382;BME280;74572;51.834;5.820;2024-02-23T10:34:02;99117.00;;;7.32;68.44
84382;BME280;74572;51.834;5.820;2024-02-23T10:36:29;99119.38;;;7.27;68.24
84382;BME280;74572;51.834;5.820;2024-02-23T10:39:00;99127.81;;;7.27;68.39
84382;BME280;74572;51.834;5.820;2024-02-23T10:41:28;99125.34;;;7.29;68.58
84382;BME280;74572;51.834;5.820;2024-02-23T10:43:58;99132.84;;;7.48;68.50
84382;BME280;74572;51.834;5.820;2024-02-23T10:46:25;99132.81;;;7.69;67.66
84382;BME280;74572;51.834;5.820;2024-02-23T10:48:52;99134.66;;;7.75;67.69
84382;BME280;74572;51.834;5.820;2024-02-23T10:51:19;99133.31;;;7.83;67.19
84382;BME280;74572;51.834;5.820;2024-02-23T10:53:45;99128.22;;;8.05;67.22
84382;BME280;74572;51.834;5.820;2024-02-23T10:56:11;99127.50;;;8.09;66.63
84382;BME280;74572;51.834;5.820;2024-02-23T10:58:37;99131.44;;;8.01;66.67
84382;BME280;74572;51.834;5.820;2024-02-23T11:01:05;99145.09;;;8.05;66.95
84382;BME280;74572;51.834;5.820;2024-02-23T11:03:33;99140.28;;;7.88;67.27
84382;BME280;74572;51.834;5.820;2024-02-23T11:06:00;99131.13;;;7.70;67.60
84382;BME280;74572;51.834;5.820;2024-02-23T11:08:29;99154.16;;;7.55;67.43
84382;BME280;74572;51.834;5.820;2024-02-23T11:10:55;99149.09;;;7.55;68.15
84382;BME280;74572;51.834;5.820;2024-02-23T11:13:30;99154.75;;;7.48;67.96
84382;BME280;74572;51.834;5.820;2024-02-23T11:16:03;99153.03;;;7.47;67.75
84382;BME280;74572;51.834;5.820;2024-02-23T11:18:29;99154.69;;;7.46;68.01
84382;BME280;74572;51.834;5.820;2024-02-23T11:20:56;99155.09;;;7.57;67.57
84382;BME280;74572;51.834;5.820;2024-02-23T11:23:23;99157.81;;;7.61;67.30
84382;BME280;74572;51.834;5.820;2024-02-23T11:26:06;99163.38;;;7.75;67.23
84382;BME280;74572;51.834;5.820;2024-02-23T11:28:42;99154.91;;;7.75;67.46
84382;BME280;74572;51.834;5.820;2024-02-23T11:31:12;99152.50;;;7.78;67.29
84382;BME280;74572;51.834;5.820;2024-02-23T11:33:38;99160.34;;;7.84;67.03
84382;BME280;74572;51.834;5.820;2024-02-23T11:36:07;99162.63;;;7.78;67.65
84382;BME280;74572;51.834;5.820;2024-02-23T11:38:33;99153.25;;;7.75;67.78
84382;BME280;74572;51.834;5.820;2024-02-23T11:41:02;99151.03;;;7.83;67.85
84382;BME280;74572;51.834;5.820;2024-02-23T11:43:28;99155.47;;;8.12;66.78
84382;BME280;74572;51.834;5.820;2024-02-23T11:45:53;99146.22;;;8.86;65.74
84382;BME280;74572;51.834;5.820;2024-02-23T11:48:19;99148.47;;;9.29;64.23
84382;BME280;74572;51.834;5.820;2024-02-23T11:50:45;99147.25;;;9.16;63.60
84382;BME280;74572;51.834;5.820;2024-02-23T11:53:10;99157.69;;;8.75;64.91
84382;BME280;74572;51.834;5.820;2024-02-23T11:55:36;99160.06;;;8.45;66.25
84382;BME280;74572;51.834;5.820;2024-02-23T11:58:02;99170.16;;;8.21;66.08
84382;BME280;74572;51.834;5.820;2024-02-23T12:00:27;99166.28;;;8.08;66.28
84382;BME280;74572;51.834;5.820;2024-02-23T12:02:55;99163.59;;;8.04;66.64
84382;BME280;74572;51.834;5.820;2024-02-23T12:05:20;99153.06;;;7.93;66.47
84382;BME280;74572;51.834;5.820;2024-02-23T12:07:46;99171.53;;;7.90;67.28
84382;BME280;74572;51.834;5.820;2024-02-23T12:10:11;99166.53;;;7.92;67.08
84382;BME280;74572;51.834;5.820;2024-02-23T12:12:38;99168.25;;;7.93;67.18
84382;BME280;74572;51.834;5.820;2024-02-23T12:15:05;99170.91;;;7.96;67.16
84382;BME280;74572;51.834;5.820;2024-02-23T12:17:31;99162.50;;;7.97;66.74
84382;BME280;74572;51.834;5.820;2024-02-23T12:20:00;99165.22;;;8.02;66.87
84382;BME280;74572;51.834;5.820;2024-02-23T12:22:25;99168.78;;;8.07;66.91
84382;BME280;74572;51.834;5.820;2024-02-23T12:24:51;99149.84;;;7.97;67.37
84382;BME280;74572;51.834;5.820;2024-02-23T12:27:18;99166.94;;;8.03;67.07
84382;BME280;74572;51.834;5.820;2024-02-23T12:29:53;99165.97;;;7.99;67.12
84382;BME280;74572;51.834;5.820;2024-02-23T12:32:20;99164.13;;;7.95;67.42
84382;BME280;74572;51.834;5.820;2024-02-23T12:34:46;99176.59;;;7.90;67.44
84382;BME280;74572;51.834;5.820;2024-02-23T12:37:16;99171.34;;;7.84;67.33
84382;BME280;74572;51.834;5.820;2024-02-23T12:39:43;99180.53;;;7.82;67.61
84382;BME280;74572;51.834;5.820;2024-02-23T12:42:08;99167.69;;;7.78;67.17
84382;BME280;74572;51.834;5.820;2024-02-23T12:44:34;99171.34;;;7.84;67.42
84382;BME280;74572;51.834;5.820;2024-02-23T12:47:00;99170.09;;;7.97;66.99
84382;BME280;74572;51.834;5.820;2024-02-23T12:49:25;99184.25;;;8.14;66.43
84382;BME280;74572;51.834;5.820;2024-02-23T12:51:51;99185.28;;;8.19;66.76
84382;BME280;74572;51.834;5.820;2024-02-23T12:54:16;99172.50;;;8.16;66.30
84382;BME280;74572;51.834;5.820;2024-02-23T12:56:41;99180.09;;;8.16;67.13
84382;BME280;74572;51.834;5.820;2024-02-23T12:59:08;99182.47;;;8.12;67.12
84382;BME280;74572;51.834;5.820;2024-02-23T13:01:35;99181.47;;;8.08;67.28
84382;BME280;74572;51.834;5.820;2024-02-23T13:04:05;99186.34;;;8.02;66.99